ADDS METAR Data INFO
IDs: Format: Raw Decoded Include TAF

Data at: 2116 UTC 19 Jul 2018

KBIJ 192055Z AUTO 00000KT 10SM SCT031 SCT037 SCT050 26/22 A2989 RMK AO2 LTG DSNT SE THRU SW
KBIJ 192035Z AUTO 00000KT 10SM -RA SCT034 SCT048 BKN070 25/22 A2990 RMK AO2 LTG DSNT SE THRU W
KBIJ 192015Z AUTO 02003KT 5SM VCTSRA SCT070 BKN090 OVC120 25/22 A2992 RMK AO2 LTG DSNT SW
KBIJ 191955Z AUTO 00000KT 10SM -DZ SCT090 SCT120 24/22 A2992 RMK AO2 LTG DSNT E AND SE
KBIJ 191935Z AUTO 31003KT 10SM -VCTSRA SCT031 SCT070 SCT120 24/22 A2993 RMK AO2 LTG DSNT E THRU SW
KBIJ 191915Z AUTO 34005G14KT 10SM -VCTSRA BKN031 BKN060 BKN075 25/22 A2993 RMK AO2 LTG DSNT ALQS
KBIJ 191855Z AUTO 03003KT 10SM TS SCT030 BKN046 BKN060 27/21 A2993 RMK AO2 LTG DSNT ALQS
KBIJ 191835Z AUTO 06004KT 10SM VCTS BKN030 OVC042 28/23 A2992 RMK AO2 LTG DSNT ALQS
KBIJ 191815Z AUTO 36005KT 10SM BKN032 30/23 A2991 RMK AO2 LTG DSNT W THRU NE
KBIJ 191755Z AUTO 31007KT 10SM BKN030 BKN090 32/23 A2991 RMK AO2 LTG DSNT ALQS
KBIJ 191735Z AUTO 13005KT 10SM SCT030 BKN041 BKN085 31/22 A2992 RMK AO2 LTG DSNT NW THRU SE
KBIJ 191715Z AUTO 13004KT 10SM SCT030 BKN039 31/22 A2993 RMK AO2 LTG DSNT NE SE AND NW
KBIJ 191655Z AUTO 22006KT 10SM SCT024 SCT039 SCT100 31/23 A2994 RMK AO2 LTG DSNT SE
KBIJ 191635Z AUTO 16004KT 10SM SCT022 SCT029 SCT100 30/23 A2995 RMK AO2 LTG DSNT NW
KBIJ 191615Z AUTO 17003KT 10SM SCT029 30/23 A2995 RMK AO2
KBIJ 191555Z AUTO 00000KT 10SM SCT017 30/23 A2995 RMK AO2
KBIJ 191535Z AUTO 12004KT 10SM SCT015 29/23 A2995 RMK AO2
KBIJ 191515Z AUTO 13003KT 10SM CLR 28/23 A2996 RMK AO2
KBIJ 191455Z AUTO 00000KT 10SM CLR 27/23 A2995 RMK AO2
KBIJ 191435Z AUTO 00000KT 10SM CLR 27/23 A2995 RMK AO2 LTG DSNT E
KBIJ 191415Z AUTO 00000KT 10SM CLR 27/23 A2995 RMK AO2
KBIJ 191355Z AUTO 00000KT 10SM CLR 26/23 A2995 RMK AO2
KBIJ 191335Z AUTO 00000KT 10SM CLR 26/23 A2995 RMK AO2 LTG DSNT S
KBIJ 191315Z AUTO 00000KT 10SM SCT004 SCT080 25/22 A2995 RMK AO2
KBIJ 191255Z AUTO 08003KT 7SM BKN004 BKN080 25/23 A2995 RMK AO2 LTG DSNT S
KBIJ 191235Z AUTO 00000KT 7SM SCT004 SCT075 25/23 A2995 RMK AO2
KBIJ 191215Z AUTO 00000KT 5SM HZ CLR A2995 RMK AO2 LTG DSNT SE AND S
KBIJ 191155Z AUTO 00000KT 3SM BR SCT002 SCT006 A2994 RMK AO2
KBIJ 191135Z AUTO 00000KT 5SM HZ SCT002 A2994 RMK AO2 LTG DSNT S
KBIJ 191115Z AUTO 00000KT 5SM HZ SCT002 A2994 RMK AO2 LTG DSNT SE AND SW
KBIJ 191055Z AUTO 00000KT 5SM HZ BKN002 A2993 RMK AO2
KBIJ 191035Z AUTO 00000KT 7SM BKN002 A2993 RMK AO2
KBIJ 191015Z AUTO 00000KT 7SM SCT002 A2992 RMK AO2
KBIJ 190955Z AUTO 00000KT 7SM CLR A2992 RMK AO2
KBIJ 190935Z AUTO 00000KT 5SM HZ SCT003 A2991 RMK AO2
KBIJ 190915Z AUTO 00000KT 5SM HZ SCT003 A2991 RMK AO2
KBIJ 190855Z AUTO 00000KT 7SM CLR A2991 RMK AO2
KBIJ 190835Z AUTO 00000KT 7SM CLR A2991 RMK AO2
KBIJ 190815Z AUTO 00000KT 7SM CLR A2990 RMK AO2
KBIJ 190755Z AUTO 00000KT 5SM HZ CLR A2989 RMK AO2
KBIJ 190735Z AUTO 00000KT 5SM HZ CLR A2989 RMK AO2 LTG DSNT S
KBIJ 190715Z AUTO 00000KT 7SM CLR A2989 RMK AO2 LTG DSNT S
KBIJ 190655Z AUTO 00000KT 7SM CLR A2989 RMK AO2
KBIJ 190635Z AUTO 00000KT 7SM CLR A2990 RMK AO2
KBIJ 190615Z AUTO 00000KT 7SM CLR A2990 RMK AO2
KBIJ 190555Z AUTO 00000KT 10SM CLR A2991 RMK AO2 LTG DSNT S
KBIJ 190535Z AUTO 00000KT 7SM CLR A2992 RMK AO2
KBIJ 190515Z AUTO 00000KT 10SM CLR A2992 RMK AO2
KBIJ 190455Z AUTO 00000KT 10SM CLR A2992 RMK AO2
KBIJ 190435Z AUTO 00000KT 10SM CLR 24/22 A2993 RMK AO2
KBIJ 190415Z AUTO 00000KT 10SM CLR 23/22 A2994 RMK AO2
KBIJ 190355Z AUTO 00000KT 10SM CLR 24/22 A2994 RMK AO2
KBIJ 190335Z AUTO 00000KT 10SM CLR 24/22 A2994 RMK AO2
KBIJ 190315Z AUTO 00000KT 10SM CLR 24/22 A2993 RMK AO2
KBIJ 190255Z AUTO 00000KT 10SM CLR 24/22 A2995 RMK AO2
KBIJ 190235Z AUTO 00000KT 10SM CLR 24/22 A2994 RMK AO2
KBIJ 190215Z AUTO 00000KT 10SM CLR 24/22 A2995 RMK AO2 LTG DSNT NE AND S
KBIJ 190155Z AUTO 00000KT 10SM SCT048 SCT055 25/22 A2993 RMK AO2
KBIJ 190135Z AUTO 00000KT 10SM BKN048 BKN055 25/22 A2993 RMK AO2 LTG DSNT NE AND SE
KBIJ 190115Z AUTO 00000KT 10SM SCT048 25/22 A2992 RMK AO2
KBIJ 190055Z AUTO 00000KT 10SM CLR 26/21 A2990 RMK AO2 LTG DSNT E
KBIJ 190035Z AUTO 00000KT 10SM SCT050 26/22 A2990 RMK AO2
KBIJ 190015Z AUTO 00000KT 10SM SCT050 27/22 A2990 RMK AO2
KBIJ 182355Z AUTO 34004KT 10SM CLR 28/22 A2990 RMK AO2 LTG DSNT E AND SW
KBIJ 182335Z AUTO 36004KT 10SM CLR 29/22 A2989 RMK AO2 LTG DSNT NE
KBIJ 182315Z AUTO 00000KT 10SM CLR 28/25 A2989 RMK AO2
KBIJ 182255Z AUTO 00000KT 10SM CLR 28/25 A2989 RMK AO2 LTG DSNT N S AND NW
KBIJ 182235Z AUTO 00000KT 10SM CLR 28/25 A2989 RMK AO2 LTG DSNT S
KBIJ 182215Z AUTO 00000KT 10SM SCT065 28/25 A2989 RMK AO2 LTG DSNT N AND SW
KBIJ 182155Z AUTO 00000KT 10SM SCT080 SCT090 30/23 A2990 RMK AO2 LTG DSNT S AND SW
KBIJ 182135Z AUTO 26003KT 10SM SCT050 BKN065 OVC080 28/25 A2990 RMK AO2 LTG DSNT SW
KBIJ 182115Z AUTO 00000KT 7SM BKN050 OVC065 27/25 A2990 RMK AO2 LTG DSNT SW
KBIJ 182055Z AUTO 14005KT 7SM -RA SCT026 BKN045 OVC060 28/25 A2990 RMK AO2
KBIJ 182035Z AUTO 00000KT 10SM BKN042 OVC050 30/23 A2990 RMK AO2 LTG DSNT S AND SW
KBIJ 182015Z AUTO 12004KT 10SM SCT044 BKN050 BKN060 30/23 A2991 RMK AO2
KBIJ 181955Z AUTO 16003KT 10SM SCT045 SCT050 SCT065 31/22 A2991 RMK AO2 LTG DSNT E AND S
KBIJ 181935Z AUTO 13003KT 10SM BKN045 BKN050 BKN065 31/22 A2992 RMK AO2 LTG DSNT NW
KBIJ 181915Z AUTO 09004KT 10SM BKN045 BKN065 31/22 A2993 RMK AO2
KBIJ 181855Z AUTO 00000KT 10SM BKN045 BKN050 BKN065 31/22 A2994 RMK AO2
KBIJ 181835Z AUTO 15004KT 10SM SCT045 SCT050 32/22 A2995 RMK AO2 LTG DSNT SW
KBIJ 181815Z AUTO 00000KT 10SM SCT038 SCT048 SCT085 31/22 A2995 RMK AO2
KBIJ 181755Z AUTO 16004KT 10SM BKN038 BKN046 30/22 A2996 RMK AO2
KBIJ 181735Z AUTO 18003KT 10SM SCT038 SCT100 31/22 A2996 RMK AO2
KBIJ 181715Z AUTO 00000KT 10SM SCT029 BKN038 BKN070 30/22 A2997 RMK AO2
KBIJ 181655Z AUTO 00000KT 10SM BKN029 29/22 A2998 RMK AO2
KBIJ 181635Z AUTO 16003KT 10SM SCT025 SCT030 SCT038 29/22 A2998 RMK AO2
KBIJ 181615Z AUTO 00000KT 10SM SCT025 BKN038 30/23 A2999 RMK AO2
KBIJ 181555Z AUTO 00000KT 10SM BKN021 BKN025 OVC034 28/22 A2999 RMK AO2
KBIJ 181535Z AUTO 00000KT 10SM BKN018 OVC024 28/22 A3000 RMK AO2
KBIJ 181515Z AUTO 00000KT 10SM BKN018 OVC024 29/23 A3000 RMK AO2
KBIJ 181455Z AUTO 00000KT 10SM BKN016 28/23 A3000 RMK AO2 LTG DSNT SW
KBIJ 181440Z AUTO 00000KT 10SM SCT016 27/23 A3000 RMK AO2 LTG DSNT SW
KBIJ 181415Z AUTO 00000KT 10SM SCT011 26/22 A3000 RMK AO2
KBIJ 181355Z AUTO 24003KT 10SM SCT011 26/22 A3000 RMK AO2
KBIJ 181335Z AUTO 00000KT 10SM SCT009 25/22 A3001 RMK AO2
KBIJ 181315Z AUTO 27003KT 10SM SCT009 25/22 A3000 RMK AO2
KBIJ 181255Z AUTO 27003KT 10SM SCT009 25/22 A3000 RMK AO2
KBIJ 181235Z AUTO 00000KT 10SM CLR 25/22 A3000 RMK AO2 LTG DSNT S
KBIJ 181215Z AUTO 30004KT 10SM CLR 24/22 A3000 RMK AO2 LTG DSNT SW
KBIJ 181155Z AUTO 00000KT 10SM CLR 23/22 A2999 RMK AO2 LTG DSNT SW
KBIJ 181135Z AUTO 00000KT 10SM CLR 23/22 A3000 RMK AO2 LTG DSNT E
KBIJ 181115Z AUTO 00000KT 10SM CLR 23/22 A2999 RMK AO2
KBIJ 181055Z AUTO 25003KT 10SM CLR 23/21 A2999 RMK AO2
KBIJ 181035Z AUTO 25003KT 10SM CLR 23/22 A2999 RMK AO2
KBIJ 181015Z AUTO 25003KT 10SM CLR 23/21 A2998 RMK AO2
KBIJ 180955Z AUTO 28003KT 10SM CLR 23/21 A2997 RMK AO2
KBIJ 180935Z AUTO 27003KT 10SM CLR 23/21 A2997 RMK AO2